sensor_id;sensor_type;location;lat;lon;timestamp;temperature;humidity
22623;DHT22;11478;51.094;7.030;2023-08-31T00:00:24;11.00;99.90
22623;DHT22;11478;51.094;7.030;2023-08-31T00:02:51;11.00;99.90
22623;DHT22;11478;51.094;7.030;2023-08-31T00:05:17;11.00;99.90
22623;DHT22;11478;51.094;7.030;2023-08-31T00:07:56;11.10;99.90
22623;DHT22;11478;51.094;7.030;2023-08-31T00:10:22;11.10;99.90
22623;DHT22;11478;51.094;7.030;2023-08-31T00:12:51;11.10;99.90
22623;DHT22;11478;51.094;7.030;2023-08-31T00:15:17;11.10;99.90
22623;DHT22;11478;51.094;7.030;2023-08-31T00:17:45;11.10;99.90
22623;DHT22;11478;51.094;7.030;2023-08-31T00:20:11;11.10;99.90
22623;DHT22;11478;51.094;7.030;2023-08-31T00:22:39;11.10;99.90
22623;DHT22;11478;51.094;7.030;2023-08-31T00:25:05;11.10;99.90
22623;DHT22;11478;51.094;7.030;2023-08-31T00:27:35;11.10;99.90
22623;DHT22;11478;51.094;7.030;2023-08-31T00:30:05;11.20;99.90
22623;DHT22;11478;51.094;7.030;2023-08-31T00:32:33;11.10;99.90
22623;DHT22;11478;51.094;7.030;2023-08-31T00:35:00;11.10;99.90
22623;DHT22;11478;51.094;7.030;2023-08-31T00:37:30;11.10;99.90
22623;DHT22;11478;51.094;7.030;2023-08-31T00:39:56;11.10;99.90
22623;DHT22;11478;51.094;7.030;2023-08-31T00:42:25;11.10;99.90
22623;DHT22;11478;51.094;7.030;2023-08-31T00:44:51;11.10;99.90
22623;DHT22;11478;51.094;7.030;2023-08-31T00:47:18;11.00;99.90
22623;DHT22;11478;51.094;7.030;2023-08-31T00:49:45;11.00;99.90
22623;DHT22;11478;51.094;7.030;2023-08-31T00:52:11;11.10;99.90
22623;DHT22;11478;51.094;7.030;2023-08-31T00:54:37;11.10;99.90
22623;DHT22;11478;51.094;7.030;2023-08-31T00:57:03;11.10;99.90
22623;DHT22;11478;51.094;7.030;2023-08-31T00:59:29;11.10;99.90
22623;DHT22;11478;51.094;7.030;2023-08-31T01:08:25;11.10;99.90
22623;DHT22;11478;51.094;7.030;2023-08-31T01:11:11;11.10;99.90
22623;DHT22;11478;51.094;7.030;2023-08-31T01:13:40;11.10;99.90
22623;DHT22;11478;51.094;7.030;2023-08-31T01:16:08;11.10;99.90
22623;DHT22;11478;51.094;7.030;2023-08-31T01:18:34;11.10;99.90
22623;DHT22;11478;51.094;7.030;2023-08-31T01:21:31;11.00;99.90
22623;DHT22;11478;51.094;7.030;2023-08-31T01:24:01;11.10;99.90
22623;DHT22;11478;51.094;7.030;2023-08-31T01:26:32;11.00;99.90
22623;DHT22;11478;51.094;7.030;2023-08-31T01:28:59;11.00;99.90
22623;DHT22;11478;51.094;7.030;2023-08-31T01:31:27;10.90;99.90
22623;DHT22;11478;51.094;7.030;2023-08-31T01:33:56;10.90;99.90
22623;DHT22;11478;51.094;7.030;2023-08-31T01:36:32;10.90;99.90
22623;DHT22;11478;51.094;7.030;2023-08-31T01:42:03;10.90;99.90
22623;DHT22;11478;51.094;7.030;2023-08-31T01:44:32;10.90;99.90
22623;DHT22;11478;51.094;7.030;2023-08-31T01:47:04;10.90;99.90
22623;DHT22;11478;51.094;7.030;2023-08-31T01:49:37;10.80;99.90
22623;DHT22;11478;51.094;7.030;2023-08-31T01:52:06;10.70;99.90
22623;DHT22;11478;51.094;7.030;2023-08-31T01:54:33;10.70;99.90
22623;DHT22;11478;51.094;7.030;2023-08-31T01:57:00;10.60;99.90
22623;DHT22;11478;51.094;7.030;2023-08-31T01:59:28;10.60;99.90
22623;DHT22;11478;51.094;7.030;2023-08-31T02:01:54;10.50;99.90
22623;DHT22;11478;51.094;7.030;2023-08-31T02:04:20;10.50;99.90
22623;DHT22;11478;51.094;7.030;2023-08-31T02:06:55;10.50;99.90
22623;DHT22;11478;51.094;7.030;2023-08-31T02:09:21;10.50;99.90
22623;DHT22;11478;51.094;7.030;2023-08-31T02:11:47;10.50;99.90
22623;DHT22;11478;51.094;7.030;2023-08-31T02:14:19;10.50;99.90
22623;DHT22;11478;51.094;7.030;2023-08-31T02:16:47;10.50;99.90
22623;DHT22;11478;51.094;7.030;2023-08-31T02:19:13;10.40;99.90
22623;DHT22;11478;51.094;7.030;2023-08-31T02:21:40;10.40;99.90
22623;DHT22;11478;51.094;7.030;2023-08-31T02:24:12;10.40;99.90
22623;DHT22;11478;51.094;7.030;2023-08-31T02:26:38;10.40;99.90
22623;DHT22;11478;51.094;7.030;2023-08-31T02:29:05;10.30;99.90
22623;DHT22;11478;51.094;7.030;2023-08-31T02:31:31;10.30;99.90
22623;DHT22;11478;51.094;7.030;2023-08-31T02:34:00;10.30;99.90
22623;DHT22;11478;51.094;7.030;2023-08-31T02:36:26;10.20;99.90
22623;DHT22;11478;51.094;7.030;2023-08-31T02:38:52;10.20;99.90
22623;DHT22;11478;51.094;7.030;2023-08-31T02:41:29;10.10;99.90
22623;DHT22;11478;51.094;7.030;2023-08-31T02:43:55;10.00;99.90
22623;DHT22;11478;51.094;7.030;2023-08-31T02:46:22;10.00;99.90
22623;DHT22;11478;51.094;7.030;2023-08-31T02:48:50;10.00;99.90
22623;DHT22;11478;51.094;7.030;2023-08-31T02:54:24;10.00;99.90
22623;DHT22;11478;51.094;7.030;2023-08-31T02:56:50;9.90;99.90
22623;DHT22;11478;51.094;7.030;2023-08-31T03:02:39;9.90;99.90
22623;DHT22;11478;51.094;7.030;2023-08-31T03:08:27;9.90;99.90
22623;DHT22;11478;51.094;7.030;2023-08-31T03:10:53;9.90;99.90
22623;DHT22;11478;51.094;7.030;2023-08-31T03:13:19;9.90;99.90
22623;DHT22;11478;51.094;7.030;2023-08-31T03:15:57;9.90;99.90
22623;DHT22;11478;51.094;7.030;2023-08-31T03:21:47;10.00;99.90
22623;DHT22;11478;51.094;7.030;2023-08-31T03:27:35;10.10;99.90
22623;DHT22;11478;51.094;7.030;2023-08-31T03:33:24;10.10;99.90
22623;DHT22;11478;51.094;7.030;2023-08-31T03:42:34;10.20;99.90
22623;DHT22;11478;51.094;7.030;2023-08-31T03:45:01;10.20;99.90
22623;DHT22;11478;51.094;7.030;2023-08-31T03:50:44;10.30;99.90
22623;DHT22;11478;51.094;7.030;2023-08-31T03:53:10;10.30;99.90
22623;DHT22;11478;51.094;7.030;2023-08-31T03:58:58;10.40;99.90
22623;DHT22;11478;51.094;7.030;2023-08-31T04:04:46;10.50;99.90
22623;DHT22;11478;51.094;7.030;2023-08-31T04:10:34;10.60;99.90
22623;DHT22;11478;51.094;7.030;2023-08-31T04:16:22;10.60;99.90
22623;DHT22;11478;51.094;7.030;2023-08-31T04:22:10;10.70;99.90
22623;DHT22;11478;51.094;7.030;2023-08-31T04:27:58;10.70;99.90
22623;DHT22;11478;51.094;7.030;2023-08-31T04:33:46;10.80;99.90
22623;DHT22;11478;51.094;7.030;2023-08-31T04:36:45;10.90;99.90
22623;DHT22;11478;51.094;7.030;2023-08-31T04:42:34;10.90;99.90
22623;DHT22;11478;51.094;7.030;2023-08-31T04:48:22;11.00;99.90
22623;DHT22;11478;51.094;7.030;2023-08-31T04:54:10;11.10;99.90
22623;DHT22;11478;51.094;7.030;2023-08-31T04:57:11;11.10;99.90
22623;DHT22;11478;51.094;7.030;2023-08-31T04:59:37;11.10;99.90
22623;DHT22;11478;51.094;7.030;2023-08-31T05:02:03;11.20;99.90
22623;DHT22;11478;51.094;7.030;2023-08-31T05:07:51;11.20;99.90
22623;DHT22;11478;51.094;7.030;2023-08-31T05:17:18;11.30;99.90
22623;DHT22;11478;51.094;7.030;2023-08-31T05:19:45;11.30;99.90
22623;DHT22;11478;51.094;7.030;2023-08-31T05:22:24;11.30;99.90
22623;DHT22;11478;51.094;7.030;2023-08-31T05:28:46;11.30;99.90
22623;DHT22;11478;51.094;7.030;2023-08-31T05:31:12;11.40;99.90
22623;DHT22;11478;51.094;7.030;2023-08-31T05:33:38;11.40;99.90
22623;DHT22;11478;51.094;7.030;2023-08-31T05:36:04;11.40;99.90
22623;DHT22;11478;51.094;7.030;2023-08-31T05:38:30;11.40;99.90
22623;DHT22;11478;51.094;7.030;2023-08-31T05:43:36;11.40;99.90
22623;DHT22;11478;51.094;7.030;2023-08-31T05:46:09;11.40;99.90
22623;DHT22;11478;51.094;7.030;2023-08-31T05:48:36;11.40;99.90
22623;DHT22;11478;51.094;7.030;2023-08-31T05:51:03;11.40;99.90
22623;DHT22;11478;51.094;7.030;2023-08-31T05:53:32;11.40;99.90
22623;DHT22;11478;51.094;7.030;2023-08-31T05:56:03;11.30;99.90
22623;DHT22;11478;51.094;7.030;2023-08-31T05:58:33;11.40;99.90
22623;DHT22;11478;51.094;7.030;2023-08-31T06:01:03;11.30;99.90
22623;DHT22;11478;51.094;7.030;2023-08-31T06:03:29;11.40;99.90
22623;DHT22;11478;51.094;7.030;2023-08-31T06:05:59;11.40;99.90
22623;DHT22;11478;51.094;7.030;2023-08-31T06:08:25;11.40;99.90
22623;DHT22;11478;51.094;7.030;2023-08-31T06:10:53;11.40;99.90
22623;DHT22;11478;51.094;7.030;2023-08-31T06:13:19;11.50;99.90
22623;DHT22;11478;51.094;7.030;2023-08-31T06:15:48;11.50;99.90
22623;DHT22;11478;51.094;7.030;2023-08-31T06:18:14;11.50;99.90
22623;DHT22;11478;51.094;7.030;2023-08-31T06:20:40;11.50;99.90
22623;DHT22;11478;51.094;7.030;2023-08-31T06:23:06;11.60;99.90
22623;DHT22;11478;51.094;7.030;2023-08-31T06:25:34;11.50;99.90
22623;DHT22;11478;51.094;7.030;2023-08-31T06:28:00;11.60;99.90
22623;DHT22;11478;51.094;7.030;2023-08-31T06:30:33;11.60;99.90
22623;DHT22;11478;51.094;7.030;2023-08-31T06:32:58;11.60;99.90
22623;DHT22;11478;51.094;7.030;2023-08-31T06:35:32;11.70;99.90
22623;DHT22;11478;51.094;7.030;2023-08-31T06:37:58;11.70;99.90
22623;DHT22;11478;51.094;7.030;2023-08-31T06:40:26;11.80;99.90
22623;DHT22;11478;51.094;7.030;2023-08-31T06:42:55;11.80;99.90
22623;DHT22;11478;51.094;7.030;2023-08-31T06:45:24;11.90;99.90
22623;DHT22;11478;51.094;7.030;2023-08-31T06:47:50;12.00;99.90
22623;DHT22;11478;51.094;7.030;2023-08-31T06:50:23;12.00;99.90
22623;DHT22;11478;51.094;7.030;2023-08-31T06:52:49;12.10;99.90
22623;DHT22;11478;51.094;7.030;2023-08-31T06:55:17;12.20;99.90
22623;DHT22;11478;51.094;7.030;2023-08-31T06:57:43;12.30;99.90
22623;DHT22;11478;51.094;7.030;2023-08-31T07:00:12;12.40;99.90
22623;DHT22;11478;51.094;7.030;2023-08-31T07:02:41;12.40;99.90
22623;DHT22;11478;51.094;7.030;2023-08-31T07:05:10;12.50;99.90
22623;DHT22;11478;51.094;7.030;2023-08-31T07:07:36;12.60;99.90
22623;DHT22;11478;51.094;7.030;2023-08-31T07:10:03;12.70;99.90
22623;DHT22;11478;51.094;7.030;2023-08-31T07:12:31;12.80;99.90
22623;DHT22;11478;51.094;7.030;2023-08-31T07:14:58;12.90;99.90
22623;DHT22;11478;51.094;7.030;2023-08-31T07:17:24;13.10;99.90
22623;DHT22;11478;51.094;7.030;2023-08-31T07:19:50;13.40;99.90
22623;DHT22;11478;51.094;7.030;2023-08-31T07:22:16;14.00;99.90
22623;DHT22;11478;51.094;7.030;2023-08-31T07:24:42;14.90;99.90
22623;DHT22;11478;51.094;7.030;2023-08-31T07:27:11;16.00;99.90
22623;DHT22;11478;51.094;7.030;2023-08-31T07:29:49;17.40;99.90
22623;DHT22;11478;51.094;7.030;2023-08-31T07:32:15;17.50;99.90
22623;DHT22;11478;51.094;7.030;2023-08-31T07:34:42;17.10;99.90
22623;DHT22;11478;51.094;7.030;2023-08-31T07:37:08;17.10;99.90
22623;DHT22;11478;51.094;7.030;2023-08-31T07:39:43;16.70;99.90
22623;DHT22;11478;51.094;7.030;2023-08-31T07:42:09;16.30;99.90
22623;DHT22;11478;51.094;7.030;2023-08-31T07:44:35;15.90;99.90
22623;DHT22;11478;51.094;7.030;2023-08-31T07:47:09;15.60;99.90
22623;DHT22;11478;51.094;7.030;2023-08-31T07:49:35;15.30;99.90
22623;DHT22;11478;51.094;7.030;2023-08-31T07:52:06;15.10;99.90
22623;DHT22;11478;51.094;7.030;2023-08-31T07:54:32;15.00;99.90
22623;DHT22;11478;51.094;7.030;2023-08-31T07:56:59;14.90;99.90
22623;DHT22;11478;51.094;7.030;2023-08-31T07:59:25;14.80;99.90
22623;DHT22;11478;51.094;7.030;2023-08-31T08:01:51;14.70;99.90
22623;DHT22;11478;51.094;7.030;2023-08-31T08:04:17;14.70;99.90
22623;DHT22;11478;51.094;7.030;2023-08-31T08:06:45;14.70;99.90
22623;DHT22;11478;51.094;7.030;2023-08-31T08:09:11;14.70;99.90
22623;DHT22;11478;51.094;7.030;2023-08-31T08:11:46;14.70;99.90
22623;DHT22;11478;51.094;7.030;2023-08-31T08:14:11;14.60;99.90
22623;DHT22;11478;51.094;7.030;2023-08-31T08:16:43;14.60;99.90
22623;DHT22;11478;51.094;7.030;2023-08-31T08:19:09;14.60;99.90
22623;DHT22;11478;51.094;7.030;2023-08-31T08:21:36;14.60;99.90
22623;DHT22;11478;51.094;7.030;2023-08-31T08:24:08;14.70;99.90
22623;DHT22;11478;51.094;7.030;2023-08-31T08:26:51;14.90;99.90
22623;DHT22;11478;51.094;7.030;2023-08-31T08:29:17;15.00;99.90
22623;DHT22;11478;51.094;7.030;2023-08-31T08:31:49;15.20;99.90
22623;DHT22;11478;51.094;7.030;2023-08-31T08:34:18;15.20;99.90
22623;DHT22;11478;51.094;7.030;2023-08-31T08:36:44;15.20;99.90
22623;DHT22;11478;51.094;7.030;2023-08-31T08:39:10;15.20;99.90
22623;DHT22;11478;51.094;7.030;2023-08-31T08:41:44;15.10;99.90
22623;DHT22;11478;51.094;7.030;2023-08-31T08:44:16;15.00;99.90
22623;DHT22;11478;51.094;7.030;2023-08-31T08:46:45;15.00;99.90
22623;DHT22;11478;51.094;7.030;2023-08-31T08:49:20;15.00;99.90
22623;DHT22;11478;51.094;7.030;2023-08-31T08:51:47;15.10;99.90
22623;DHT22;11478;51.094;7.030;2023-08-31T08:54:14;15.10;99.90
22623;DHT22;11478;51.094;7.030;2023-08-31T08:56:43;15.10;99.90
22623;DHT22;11478;51.094;7.030;2023-08-31T08:59:17;15.20;99.90
22623;DHT22;11478;51.094;7.030;2023-08-31T09:01:44;15.20;99.90
22623;DHT22;11478;51.094;7.030;2023-08-31T09:04:19;15.30;99.90
22623;DHT22;11478;51.094;7.030;2023-08-31T09:06:45;15.40;99.90
22623;DHT22;11478;51.094;7.030;2023-08-31T09:09:14;15.40;99.90
22623;DHT22;11478;51.094;7.030;2023-08-31T09:11:39;15.30;99.90
22623;DHT22;11478;51.094;7.030;2023-08-31T09:14:19;15.30;99.90
22623;DHT22;11478;51.094;7.030;2023-08-31T09:16:51;15.30;99.90
22623;DHT22;11478;51.094;7.030;2023-08-31T09:19:19;15.40;99.90
22623;DHT22;11478;51.094;7.030;2023-08-31T09:21:48;15.40;99.90
22623;DHT22;11478;51.094;7.030;2023-08-31T09:24:14;15.50;99.90
22623;DHT22;11478;51.094;7.030;2023-08-31T09:26:43;15.60;99.90
22623;DHT22;11478;51.094;7.030;2023-08-31T09:29:10;15.60;99.90
22623;DHT22;11478;51.094;7.030;2023-08-31T09:31:36;15.70;99.90
22623;DHT22;11478;51.094;7.030;2023-08-31T09:34:03;15.80;99.90
22623;DHT22;11478;51.094;7.030;2023-08-31T09:36:29;15.90;99.90
22623;DHT22;11478;51.094;7.030;2023-08-31T09:39:13;15.90;99.90
22623;DHT22;11478;51.094;7.030;2023-08-31T09:41:52;16.00;99.90
22623;DHT22;11478;51.094;7.030;2023-08-31T09:44:19;16.10;99.90
22623;DHT22;11478;51.094;7.030;2023-08-31T09:46:47;16.10;99.90
22623;DHT22;11478;51.094;7.030;2023-08-31T09:49:14;16.20;99.90
22623;DHT22;11478;51.094;7.030;2023-08-31T09:51:49;16.20;99.90
22623;DHT22;11478;51.094;7.030;2023-08-31T09:54:17;16.30;99.90
22623;DHT22;11478;51.094;7.030;2023-08-31T09:56:46;16.30;99.90
22623;DHT22;11478;51.094;7.030;2023-08-31T09:59:14;16.30;99.90
22623;DHT22;11478;51.094;7.030;2023-08-31T10:01:44;16.40;99.90
22623;DHT22;11478;51.094;7.030;2023-08-31T10:04:11;16.40;99.90
22623;DHT22;11478;51.094;7.030;2023-08-31T10:06:51;16.40;99.90
22623;DHT22;11478;51.094;7.030;2023-08-31T10:09:20;16.40;99.90
22623;DHT22;11478;51.094;7.030;2023-08-31T10:12:09;16.40;99.90
22623;DHT22;11478;51.094;7.030;2023-08-31T10:14:36;16.40;99.90
22623;DHT22;11478;51.094;7.030;2023-08-31T10:17:03;16.50;99.90
22623;DHT22;11478;51.094;7.030;2023-08-31T10:19:29;16.40;99.90
22623;DHT22;11478;51.094;7.030;2023-08-31T10:22:05;16.40;99.90
22623;DHT22;11478;51.094;7.030;2023-08-31T10:24:57;16.30;99.90
22623;DHT22;11478;51.094;7.030;2023-08-31T10:27:42;16.10;99.90
22623;DHT22;11478;51.094;7.030;2023-08-31T10:30:24;16.10;99.90
22623;DHT22;11478;51.094;7.030;2023-08-31T10:35:45;16.20;99.90
22623;DHT22;11478;51.094;7.030;2023-08-31T10:38:23;16.30;99.90
22623;DHT22;11478;51.094;7.030;2023-08-31T10:41:22;16.40;99.90
22623;DHT22;11478;51.094;7.030;2023-08-31T10:43:56;16.70;99.90
22623;DHT22;11478;51.094;7.030;2023-08-31T10:46:36;16.80;99.90
22623;DHT22;11478;51.094;7.030;2023-08-31T10:49:14;16.90;99.90
22623;DHT22;11478;51.094;7.030;2023-08-31T10:51:44;17.00;99.90
22623;DHT22;11478;51.094;7.030;2023-08-31T10:57:11;17.10;99.90
22623;DHT22;11478;51.094;7.030;2023-08-31T10:59:51;17.10;99.90
22623;DHT22;11478;51.094;7.030;2023-08-31T11:02:43;17.00;99.90
22623;DHT22;11478;51.094;7.030;2023-08-31T11:05:15;16.90;99.90
22623;DHT22;11478;51.094;7.030;2023-08-31T11:07:50;16.90;99.90
22623;DHT22;11478;51.094;7.030;2023-08-31T11:10:20;17.00;99.90
22623;DHT22;11478;51.094;7.030;2023-08-31T11:12:53;17.10;99.90
22623;DHT22;11478;51.094;7.030;2023-08-31T11:15:24;17.10;99.90
22623;DHT22;11478;51.094;7.030;2023-08-31T11:18:00;17.00;99.90
22623;DHT22;11478;51.094;7.030;2023-08-31T11:20:26;17.00;99.90
22623;DHT22;11478;51.094;7.030;2023-08-31T11:23:05;17.00;99.90
22623;DHT22;11478;51.094;7.030;2023-08-31T11:25:34;16.90;99.90
22623;DHT22;11478;51.094;7.030;2023-08-31T11:28:03;16.80;99.90
22623;DHT22;11478;51.094;7.030;2023-08-31T11:30:34;16.90;99.90
22623;DHT22;11478;51.094;7.030;2023-08-31T11:33:07;17.00;99.90
22623;DHT22;11478;51.094;7.030;2023-08-31T11:35:36;17.20;99.90
22623;DHT22;11478;51.094;7.030;2023-08-31T11:38:07;17.30;99.90
22623;DHT22;11478;51.094;7.030;2023-08-31T11:40:33;17.40;99.90
22623;DHT22;11478;51.094;7.030;2023-08-31T11:43:09;17.50;99.90
22623;DHT22;11478;51.094;7.030;2023-08-31T11:45:36;17.40;99.90
22623;DHT22;11478;51.094;7.030;2023-08-31T11:48:04;17.30;99.90
22623;DHT22;11478;51.094;7.030;2023-08-31T11:50:37;17.40;99.90
22623;DHT22;11478;51.094;7.030;2023-08-31T11:53:05;17.50;99.90
22623;DHT22;11478;51.094;7.030;2023-08-31T11:55:35;17.70;99.90
22623;DHT22;11478;51.094;7.030;2023-08-31T11:58:07;17.90;99.90
22623;DHT22;11478;51.094;7.030;2023-08-31T12:00:34;18.00;99.90
22623;DHT22;11478;51.094;7.030;2023-08-31T12:03:01;18.10;99.90
22623;DHT22;11478;51.094;7.030;2023-08-31T12:05:50;18.20;99.90
22623;DHT22;11478;51.094;7.030;2023-08-31T12:08:24;18.10;99.90
22623;DHT22;11478;51.094;7.030;2023-08-31T12:11:06;18.10;99.90
22623;DHT22;11478;51.094;7.030;2023-08-31T12:13:38;18.00;99.90
22623;DHT22;11478;51.094;7.030;2023-08-31T12:16:06;18.00;99.90
22623;DHT22;11478;51.094;7.030;2023-08-31T12:18:37;18.00;99.90
22623;DHT22;11478;51.094;7.030;2023-08-31T12:21:04;18.00;99.90
22623;DHT22;11478;51.094;7.030;2023-08-31T12:23:37;18.00;99.90
22623;DHT22;11478;51.094;7.030;2023-08-31T12:26:05;17.90;99.90
22623;DHT22;11478;51.094;7.030;2023-08-31T12:28:38;17.90;99.90
22623;DHT22;11478;51.094;7.030;2023-08-31T12:31:04;17.90;99.90
22623;DHT22;11478;51.094;7.030;2023-08-31T12:33:32;18.00;99.90
22623;DHT22;11478;51.094;7.030;2023-08-31T12:35:58;18.00;99.90
22623;DHT22;11478;51.094;7.030;2023-08-31T12:38:26;17.90;99.90
22623;DHT22;11478;51.094;7.030;2023-08-31T12:40:52;18.00;99.90
22623;DHT22;11478;51.094;7.030;2023-08-31T12:43:21;18.10;99.90
22623;DHT22;11478;51.094;7.030;2023-08-31T12:45:47;18.30;99.90
22623;DHT22;11478;51.094;7.030;2023-08-31T12:48:19;18.30;99.90
22623;DHT22;11478;51.094;7.030;2023-08-31T12:50:44;18.40;99.90
22623;DHT22;11478;51.094;7.030;2023-08-31T12:53:12;18.40;99.90
22623;DHT22;11478;51.094;7.030;2023-08-31T12:55:38;18.40;99.90
22623;DHT22;11478;51.094;7.030;2023-08-31T12:58:09;18.50;99.90
22623;DHT22;11478;51.094;7.030;2023-08-31T13:00:35;18.70;99.90
22623;DHT22;11478;51.094;7.030;2023-08-31T13:03:11;18.80;99.90
22623;DHT22;11478;51.094;7.030;2023-08-31T13:05:41;18.90;99.90
22623;DHT22;11478;51.094;7.030;2023-08-31T13:08:11;19.00;99.90
22623;DHT22;11478;51.094;7.030;2023-08-31T13:10:40;19.10;99.90
22623;DHT22;11478;51.094;7.030;2023-08-31T13:13:09;19.10;99.90
22623;DHT22;11478;51.094;7.030;2023-08-31T13:15:38;19.20;99.90
22623;DHT22;11478;51.094;7.030;2023-08-31T13:18:06;19.20;99.90
22623;DHT22;11478;51.094;7.030;2023-08-31T13:20:32;19.20;99.90
22623;DHT22;11478;51.094;7.030;2023-08-31T13:23:02;19.30;99.90
22623;DHT22;11478;51.094;7.030;2023-08-31T13:25:28;19.30;99.90
22623;DHT22;11478;51.094;7.030;2023-08-31T13:28:00;19.30;99.90
22623;DHT22;11478;51.094;7.030;2023-08-31T13:30:29;19.30;99.90
22623;DHT22;11478;51.094;7.030;2023-08-31T13:32:58;19.30;99.90
22623;DHT22;11478;51.094;7.030;2023-08-31T13:35:27;19.40;99.90
22623;DHT22;11478;51.094;7.030;2023-08-31T13:37:54;19.40;99.90
22623;DHT22;11478;51.094;7.030;2023-08-31T13:40:28;19.40;99.90
22623;DHT22;11478;51.094;7.030;2023-08-31T13:42:56;19.30;99.90
22623;DHT22;11478;51.094;7.030;2023-08-31T13:45:25;19.10;99.90
22623;DHT22;11478;51.094;7.030;2023-08-31T13:48:17;18.90;99.90
22623;DHT22;11478;51.094;7.030;2023-08-31T13:50:52;18.80;99.90
22623;DHT22;11478;51.094;7.030;2023-08-31T13:53:45;18.70;99.90
22623;DHT22;11478;51.094;7.030;2023-08-31T13:56:13;18.80;99.90
22623;DHT22;11478;51.094;7.030;2023-08-31T13:58:58;18.80;99.90
22623;DHT22;11478;51.094;7.030;2023-08-31T14:01:31;19.00;99.90
22623;DHT22;11478;51.094;7.030;2023-08-31T14:03:57;19.10;99.90
22623;DHT22;11478;51.094;7.030;2023-08-31T14:06:23;19.20;99.90
22623;DHT22;11478;51.094;7.030;2023-08-31T14:08:58;19.30;99.90
22623;DHT22;11478;51.094;7.030;2023-08-31T14:11:24;19.30;99.90
22623;DHT22;11478;51.094;7.030;2023-08-31T14:13:52;19.40;99.90
22623;DHT22;11478;51.094;7.030;2023-08-31T14:16:18;19.50;99.90
22623;DHT22;11478;51.094;7.030;2023-08-31T14:18:49;19.50;99.90
22623;DHT22;11478;51.094;7.030;2023-08-31T14:21:16;19.60;99.90
22623;DHT22;11478;51.094;7.030;2023-08-31T14:23:42;19.60;99.90
22623;DHT22;11478;51.094;7.030;2023-08-31T14:26:14;19.70;99.90
22623;DHT22;11478;51.094;7.030;2023-08-31T14:28:47;19.80;99.90
22623;DHT22;11478;51.094;7.030;2023-08-31T14:31:13;19.70;99.90
22623;DHT22;11478;51.094;7.030;2023-08-31T14:33:42;19.60;99.90
22623;DHT22;11478;51.094;7.030;2023-08-31T14:36:13;19.50;99.90
22623;DHT22;11478;51.094;7.030;2023-08-31T14:38:47;19.40;99.90
22623;DHT22;11478;51.094;7.030;2023-08-31T14:41:13;19.40;99.90
22623;DHT22;11478;51.094;7.030;2023-08-31T14:43:40;19.30;99.90
22623;DHT22;11478;51.094;7.030;2023-08-31T14:46:06;19.40;99.90
22623;DHT22;11478;51.094;7.030;2023-08-31T14:48:35;19.50;99.90
22623;DHT22;11478;51.094;7.030;2023-08-31T14:51:02;19.50;99.90
22623;DHT22;11478;51.094;7.030;2023-08-31T14:53:28;19.60;99.90
22623;DHT22;11478;51.094;7.030;2023-08-31T14:55:54;19.60;99.90
22623;DHT22;11478;51.094;7.030;2023-08-31T14:58:21;19.60;99.90
22623;DHT22;11478;51.094;7.030;2023-08-31T15:00:50;19.50;99.90
22623;DHT22;11478;51.094;7.030;2023-08-31T15:03:17;19.40;99.90
22623;DHT22;11478;51.094;7.030;2023-08-31T15:05:52;19.30;99.90
22623;DHT22;11478;51.094;7.030;2023-08-31T15:08:21;19.20;99.90
22623;DHT22;11478;51.094;7.030;2023-08-31T15:10:47;19.00;99.90
22623;DHT22;11478;51.094;7.030;2023-08-31T15:13:15;18.90;99.90
22623;DHT22;11478;51.094;7.030;2023-08-31T15:16:02;18.80;99.90
22623;DHT22;11478;51.094;7.030;2023-08-31T15:18:28;18.70;99.90
22623;DHT22;11478;51.094;7.030;2023-08-31T15:21:24;18.70;99.90
22623;DHT22;11478;51.094;7.030;2023-08-31T15:23:52;18.70;99.90
22623;DHT22;11478;51.094;7.030;2023-08-31T15:26:40;18.80;99.90
22623;DHT22;11478;51.094;7.030;2023-08-31T15:29:28;18.90;99.90
22623;DHT22;11478;51.094;7.030;2023-08-31T15:32:15;19.10;99.90
22623;DHT22;11478;51.094;7.030;2023-08-31T15:34:52;19.30;99.90
22623;DHT22;11478;51.094;7.030;2023-08-31T15:37:18;19.30;99.90
22623;DHT22;11478;51.094;7.030;2023-08-31T15:39:46;19.40;99.90
22623;DHT22;11478;51.094;7.030;2023-08-31T15:42:14;19.40;99.90
22623;DHT22;11478;51.094;7.030;2023-08-31T15:44:45;19.40;99.90
22623;DHT22;11478;51.094;7.030;2023-08-31T15:47:19;19.30;99.90
22623;DHT22;11478;51.094;7.030;2023-08-31T15:49:46;19.20;99.90
22623;DHT22;11478;51.094;7.030;2023-08-31T15:52:13;19.20;99.90
22623;DHT22;11478;51.094;7.030;2023-08-31T15:54:38;19.10;99.90
22623;DHT22;11478;51.094;7.030;2023-08-31T15:57:11;18.90;99.90
22623;DHT22;11478;51.094;7.030;2023-08-31T15:59:37;18.80;99.90
22623;DHT22;11478;51.094;7.030;2023-08-31T16:02:04;18.80;99.90
22623;DHT22;11478;51.094;7.030;2023-08-31T16:04:30;18.70;99.90
22623;DHT22;11478;51.094;7.030;2023-08-31T16:06:58;18.70;99.90
22623;DHT22;11478;51.094;7.030;2023-08-31T16:09:24;18.70;99.90
22623;DHT22;11478;51.094;7.030;2023-08-31T16:11:50;18.60;99.90
22623;DHT22;11478;51.094;7.030;2023-08-31T16:14:16;18.60;99.90
22623;DHT22;11478;51.094;7.030;2023-08-31T16:16:45;18.60;99.90
22623;DHT22;11478;51.094;7.030;2023-08-31T16:19:11;18.50;99.90
22623;DHT22;11478;51.094;7.030;2023-08-31T16:21:40;18.50;99.90
22623;DHT22;11478;51.094;7.030;2023-08-31T16:24:06;18.60;99.90
22623;DHT22;11478;51.094;7.030;2023-08-31T16:26:32;18.80;99.90
22623;DHT22;11478;51.094;7.030;2023-08-31T16:28:58;19.00;99.90
22623;DHT22;11478;51.094;7.030;2023-08-31T16:31:26;19.10;99.90
22623;DHT22;11478;51.094;7.030;2023-08-31T16:33:52;19.30;99.90
22623;DHT22;11478;51.094;7.030;2023-08-31T16:36:25;19.50;99.90
22623;DHT22;11478;51.094;7.030;2023-08-31T16:38:51;19.60;99.90
22623;DHT22;11478;51.094;7.030;2023-08-31T16:41:25;19.80;99.90
22623;DHT22;11478;51.094;7.030;2023-08-31T16:43:51;19.90;99.90
22623;DHT22;11478;51.094;7.030;2023-08-31T16:46:19;19.90;99.90
22623;DHT22;11478;51.094;7.030;2023-08-31T16:48:46;20.00;99.90
22623;DHT22;11478;51.094;7.030;2023-08-31T16:51:12;20.00;99.90
22623;DHT22;11478;51.094;7.030;2023-08-31T16:53:39;20.00;99.90
22623;DHT22;11478;51.094;7.030;2023-08-31T16:56:06;19.90;99.90
22623;DHT22;11478;51.094;7.030;2023-08-31T16:58:33;19.80;99.90
22623;DHT22;11478;51.094;7.030;2023-08-31T17:00:59;19.80;99.90
22623;DHT22;11478;51.094;7.030;2023-08-31T17:03:37;19.60;99.90
22623;DHT22;11478;51.094;7.030;2023-08-31T17:06:04;19.50;99.90
22623;DHT22;11478;51.094;7.030;2023-08-31T17:08:30;19.40;99.90
22623;DHT22;11478;51.094;7.030;2023-08-31T17:10:57;19.10;99.90
22623;DHT22;11478;51.094;7.030;2023-08-31T17:13:24;18.90;99.90
22623;DHT22;11478;51.094;7.030;2023-08-31T17:15:49;18.70;99.90
22623;DHT22;11478;51.094;7.030;2023-08-31T17:18:17;18.50;99.90
22623;DHT22;11478;51.094;7.030;2023-08-31T17:20:43;18.30;99.90